sensor_id;sensor_type;location;lat;lon;timestamp;P1;durP1;ratioP1;P2;durP2;ratioP2
12155;SDS011;6141;49.092;8.516;2022-09-09T00:00:25;6.33;;;1.80;;
12155;SDS011;6141;49.092;8.516;2022-09-09T00:03:11;4.97;;;1.60;;
12155;SDS011;6141;49.092;8.516;2022-09-09T00:06:16;2.87;;;1.40;;
12155;SDS011;6141;49.092;8.516;2022-09-09T00:09:21;3.07;;;1.30;;
12155;SDS011;6141;49.092;8.516;2022-09-09T00:12:36;3.47;;;1.30;;
12155;SDS011;6141;49.092;8.516;2022-09-09T00:15:30;2.30;;;1.40;;
12155;SDS011;6141;49.092;8.516;2022-09-09T00:18:28;4.30;;;1.60;;
12155;SDS011;6141;49.092;8.516;2022-09-09T00:21:35;4.00;;;1.37;;
12155;SDS011;6141;49.092;8.516;2022-09-09T00:24:10;3.47;;;1.57;;
12155;SDS011;6141;49.092;8.516;2022-09-09T00:27:19;6.67;;;1.30;;
12155;SDS011;6141;49.092;8.516;2022-09-09T00:30:13;5.90;;;1.70;;
12155;SDS011;6141;49.092;8.516;2022-09-09T00:33:11;3.40;;;1.40;;
12155;SDS011;6141;49.092;8.516;2022-09-09T00:36:09;3.27;;;1.43;;
12155;SDS011;6141;49.092;8.516;2022-09-09T00:39:31;2.07;;;1.30;;
12155;SDS011;6141;49.092;8.516;2022-09-09T00:45:35;5.23;;;1.70;;
12155;SDS011;6141;49.092;8.516;2022-09-09T00:48:37;2.53;;;1.50;;
12155;SDS011;6141;49.092;8.516;2022-09-09T00:51:40;6.77;;;1.60;;
12155;SDS011;6141;49.092;8.516;2022-09-09T00:54:47;4.07;;;1.70;;
12155;SDS011;6141;49.092;8.516;2022-09-09T00:57:43;7.17;;;1.47;;
12155;SDS011;6141;49.092;8.516;2022-09-09T01:00:27;2.50;;;1.50;;
12155;SDS011;6141;49.092;8.516;2022-09-09T01:03:32;7.57;;;1.80;;
12155;SDS011;6141;49.092;8.516;2022-09-09T01:06:21;7.87;;;1.80;;
12155;SDS011;6141;49.092;8.516;2022-09-09T01:09:17;5.13;;;1.53;;
12155;SDS011;6141;49.092;8.516;2022-09-09T01:12:32;5.33;;;1.70;;
12155;SDS011;6141;49.092;8.516;2022-09-09T01:15:29;3.77;;;1.70;;
12155;SDS011;6141;49.092;8.516;2022-09-09T01:19:01;2.33;;;1.60;;
12155;SDS011;6141;49.092;8.516;2022-09-09T01:21:47;4.47;;;1.73;;
12155;SDS011;6141;49.092;8.516;2022-09-09T01:25:09;3.80;;;1.57;;
12155;SDS011;6141;49.092;8.516;2022-09-09T01:28:37;7.00;;;2.03;;
12155;SDS011;6141;49.092;8.516;2022-09-09T01:31:36;8.00;;;1.90;;
12155;SDS011;6141;49.092;8.516;2022-09-09T01:34:18;4.90;;;1.40;;
12155;SDS011;6141;49.092;8.516;2022-09-09T01:37:02;4.57;;;1.60;;
12155;SDS011;6141;49.092;8.516;2022-09-09T01:39:49;5.30;;;1.60;;
12155;SDS011;6141;49.092;8.516;2022-09-09T01:42:48;4.63;;;1.50;;
12155;SDS011;6141;49.092;8.516;2022-09-09T01:46:04;3.67;;;1.63;;
12155;SDS011;6141;49.092;8.516;2022-09-09T01:49:14;5.30;;;1.50;;
12155;SDS011;6141;49.092;8.516;2022-09-09T01:52:20;5.53;;;1.77;;
12155;SDS011;6141;49.092;8.516;2022-09-09T01:55:20;5.40;;;1.40;;
12155;SDS011;6141;49.092;8.516;2022-09-09T01:58:21;4.37;;;1.60;;
12155;SDS011;6141;49.092;8.516;2022-09-09T02:01:28;4.13;;;1.40;;
12155;SDS011;6141;49.092;8.516;2022-09-09T02:04:18;4.97;;;1.70;;
12155;SDS011;6141;49.092;8.516;2022-09-09T02:07:14;5.77;;;1.73;;
12155;SDS011;6141;49.092;8.516;2022-09-09T02:09:59;6.40;;;1.50;;
12155;SDS011;6141;49.092;8.516;2022-09-09T02:13:08;4.17;;;1.50;;
12155;SDS011;6141;49.092;8.516;2022-09-09T02:16:10;4.37;;;1.33;;
12155;SDS011;6141;49.092;8.516;2022-09-09T02:19:11;3.47;;;1.30;;
12155;SDS011;6141;49.092;8.516;2022-09-09T02:22:22;3.67;;;1.23;;
12155;SDS011;6141;49.092;8.516;2022-09-09T02:25:40;4.30;;;1.90;;
12155;SDS011;6141;49.092;8.516;2022-09-09T02:28:47;3.87;;;1.20;;
12155;SDS011;6141;49.092;8.516;2022-09-09T02:31:50;4.23;;;1.33;;
12155;SDS011;6141;49.092;8.516;2022-09-09T02:34:51;4.60;;;1.30;;
12155;SDS011;6141;49.092;8.516;2022-09-09T02:37:51;5.43;;;1.33;;
12155;SDS011;6141;49.092;8.516;2022-09-09T02:41:10;3.30;;;1.23;;
12155;SDS011;6141;49.092;8.516;2022-09-09T02:44:29;2.87;;;1.03;;
12155;SDS011;6141;49.092;8.516;2022-09-09T02:47:33;2.27;;;0.80;;
12155;SDS011;6141;49.092;8.516;2022-09-09T02:56:53;2.43;;;0.90;;
12155;SDS011;6141;49.092;8.516;2022-09-09T02:59:53;5.10;;;1.13;;
12155;SDS011;6141;49.092;8.516;2022-09-09T03:02:43;2.67;;;0.90;;
12155;SDS011;6141;49.092;8.516;2022-09-09T03:05:24;3.37;;;0.90;;
12155;SDS011;6141;49.092;8.516;2022-09-09T03:08:17;3.43;;;0.87;;
12155;SDS011;6141;49.092;8.516;2022-09-09T03:11:08;1.50;;;0.90;;
12155;SDS011;6141;49.092;8.516;2022-09-09T03:14:00;3.70;;;0.90;;
12155;SDS011;6141;49.092;8.516;2022-09-09T03:16:54;3.87;;;0.90;;
12155;SDS011;6141;49.092;8.516;2022-09-09T03:20:02;2.40;;;0.97;;
12155;SDS011;6141;49.092;8.516;2022-09-09T03:22:47;2.00;;;0.93;;
12155;SDS011;6141;49.092;8.516;2022-09-09T03:25:32;2.77;;;0.80;;
12155;SDS011;6141;49.092;8.516;2022-09-09T03:28:15;2.87;;;0.97;;
12155;SDS011;6141;49.092;8.516;2022-09-09T03:31:32;3.13;;;1.00;;
12155;SDS011;6141;49.092;8.516;2022-09-09T03:34:41;2.23;;;0.90;;
12155;SDS011;6141;49.092;8.516;2022-09-09T03:37:24;1.50;;;0.67;;
12155;SDS011;6141;49.092;8.516;2022-09-09T03:40:11;4.97;;;1.10;;
12155;SDS011;6141;49.092;8.516;2022-09-09T03:43:30;2.57;;;0.77;;
12155;SDS011;6141;49.092;8.516;2022-09-09T03:46:25;3.20;;;0.97;;
12155;SDS011;6141;49.092;8.516;2022-09-09T03:49:22;1.00;;;0.70;;
12155;SDS011;6141;49.092;8.516;2022-09-09T03:52:32;3.20;;;0.63;;
12155;SDS011;6141;49.092;8.516;2022-09-09T03:55:26;3.30;;;1.00;;
12155;SDS011;6141;49.092;8.516;2022-09-09T03:58:34;2.70;;;1.00;;
12155;SDS011;6141;49.092;8.516;2022-09-09T04:01:15;3.47;;;0.77;;
12155;SDS011;6141;49.092;8.516;2022-09-09T04:04:34;2.47;;;0.90;;
12155;SDS011;6141;49.092;8.516;2022-09-09T04:07:30;4.47;;;1.30;;
12155;SDS011;6141;49.092;8.516;2022-09-09T04:10:39;3.57;;;0.97;;
12155;SDS011;6141;49.092;8.516;2022-09-09T04:17:24;2.57;;;0.70;;
12155;SDS011;6141;49.092;8.516;2022-09-09T04:20:40;3.33;;;1.00;;
12155;SDS011;6141;49.092;8.516;2022-09-09T04:23:50;6.07;;;1.00;;
12155;SDS011;6141;49.092;8.516;2022-09-09T04:27:06;4.13;;;0.80;;
12155;SDS011;6141;49.092;8.516;2022-09-09T04:30:12;6.27;;;1.00;;
12155;SDS011;6141;49.092;8.516;2022-09-09T04:33:26;3.60;;;0.97;;
12155;SDS011;6141;49.092;8.516;2022-09-09T04:36:28;2.60;;;1.00;;
12155;SDS011;6141;49.092;8.516;2022-09-09T04:43:22;3.50;;;0.90;;
12155;SDS011;6141;49.092;8.516;2022-09-09T04:46:17;7.40;;;0.93;;
12155;SDS011;6141;49.092;8.516;2022-09-09T04:49:05;1.83;;;0.80;;
12155;SDS011;6141;49.092;8.516;2022-09-09T04:52:15;1.90;;;0.83;;
12155;SDS011;6141;49.092;8.516;2022-09-09T04:55:13;2.10;;;0.80;;
12155;SDS011;6141;49.092;8.516;2022-09-09T04:58:09;2.10;;;0.90;;
12155;SDS011;6141;49.092;8.516;2022-09-09T05:01:31;4.80;;;1.00;;
12155;SDS011;6141;49.092;8.516;2022-09-09T05:04:21;3.50;;;1.00;;
12155;SDS011;6141;49.092;8.516;2022-09-09T05:07:30;1.80;;;0.73;;
12155;SDS011;6141;49.092;8.516;2022-09-09T05:10:39;2.03;;;0.90;;
12155;SDS011;6141;49.092;8.516;2022-09-09T05:13:29;2.67;;;1.00;;
12155;SDS011;6141;49.092;8.516;2022-09-09T05:16:23;1.67;;;0.73;;
12155;SDS011;6141;49.092;8.516;2022-09-09T05:19:30;1.60;;;0.70;;
12155;SDS011;6141;49.092;8.516;2022-09-09T05:22:23;2.13;;;0.83;;
12155;SDS011;6141;49.092;8.516;2022-09-09T05:25:11;7.53;;;1.20;;
12155;SDS011;6141;49.092;8.516;2022-09-09T05:27:58;3.73;;;1.10;;
12155;SDS011;6141;49.092;8.516;2022-09-09T05:31:01;2.00;;;1.00;;
12155;SDS011;6141;49.092;8.516;2022-09-09T05:36:49;2.47;;;0.90;;
12155;SDS011;6141;49.092;8.516;2022-09-09T05:39:50;2.60;;;0.90;;
12155;SDS011;6141;49.092;8.516;2022-09-09T05:42:37;3.23;;;1.23;;
12155;SDS011;6141;49.092;8.516;2022-09-09T05:46:00;4.40;;;1.20;;
12155;SDS011;6141;49.092;8.516;2022-09-09T05:48:53;3.70;;;0.90;;
12155;SDS011;6141;49.092;8.516;2022-09-09T05:52:03;4.00;;;1.10;;
12155;SDS011;6141;49.092;8.516;2022-09-09T05:55:21;1.93;;;0.83;;
12155;SDS011;6141;49.092;8.516;2022-09-09T05:58:15;4.43;;;0.90;;
12155;SDS011;6141;49.092;8.516;2022-09-09T06:01:17;2.50;;;1.00;;
12155;SDS011;6141;49.092;8.516;2022-09-09T06:04:03;2.17;;;1.13;;
12155;SDS011;6141;49.092;8.516;2022-09-09T06:13:57;4.10;;;1.10;;
12155;SDS011;6141;49.092;8.516;2022-09-09T06:16:45;2.90;;;1.10;;
12155;SDS011;6141;49.092;8.516;2022-09-09T06:20:00;3.70;;;1.20;;
12155;SDS011;6141;49.092;8.516;2022-09-09T06:23:05;1.27;;;0.80;;
12155;SDS011;6141;49.092;8.516;2022-09-09T06:25:46;4.13;;;1.00;;
12155;SDS011;6141;49.092;8.516;2022-09-09T06:28:30;4.30;;;1.60;;
12155;SDS011;6141;49.092;8.516;2022-09-09T06:31:19;4.73;;;1.27;;
12155;SDS011;6141;49.092;8.516;2022-09-09T06:34:30;3.37;;;1.10;;
12155;SDS011;6141;49.092;8.516;2022-09-09T06:37:27;5.23;;;1.53;;
12155;SDS011;6141;49.092;8.516;2022-09-09T06:43:34;6.20;;;1.23;;
12155;SDS011;6141;49.092;8.516;2022-09-09T06:46:28;4.03;;;1.30;;
12155;SDS011;6141;49.092;8.516;2022-09-09T06:49:10;5.73;;;1.40;;
12155;SDS011;6141;49.092;8.516;2022-09-09T06:52:29;5.40;;;1.30;;
12155;SDS011;6141;49.092;8.516;2022-09-09T06:55:48;4.53;;;1.20;;
12155;SDS011;6141;49.092;8.516;2022-09-09T06:58:47;4.17;;;1.40;;
12155;SDS011;6141;49.092;8.516;2022-09-09T07:01:45;5.23;;;1.30;;
12155;SDS011;6141;49.092;8.516;2022-09-09T07:04:36;2.93;;;1.20;;
12155;SDS011;6141;49.092;8.516;2022-09-09T07:07:24;5.23;;;1.37;;
12155;SDS011;6141;49.092;8.516;2022-09-09T07:10:23;3.83;;;1.20;;
12155;SDS011;6141;49.092;8.516;2022-09-09T07:17:09;2.27;;;1.20;;
12155;SDS011;6141;49.092;8.516;2022-09-09T07:23:44;6.97;;;1.10;;
12155;SDS011;6141;49.092;8.516;2022-09-09T07:26:41;2.37;;;1.10;;
12155;SDS011;6141;49.092;8.516;2022-09-09T07:33:14;7.57;;;1.50;;
12155;SDS011;6141;49.092;8.516;2022-09-09T07:39:13;3.03;;;1.10;;
12155;SDS011;6141;49.092;8.516;2022-09-09T07:42:54;3.93;;;1.30;;
12155;SDS011;6141;49.092;8.516;2022-09-09T07:46:10;4.67;;;1.50;;
12155;SDS011;6141;49.092;8.516;2022-09-09T07:49:10;3.17;;;1.07;;
12155;SDS011;6141;49.092;8.516;2022-09-09T07:52:02;4.40;;;1.40;;
12155;SDS011;6141;49.092;8.516;2022-09-09T07:54:53;4.13;;;1.30;;
12155;SDS011;6141;49.092;8.516;2022-09-09T07:58:18;4.60;;;1.30;;
12155;SDS011;6141;49.092;8.516;2022-09-09T08:01:35;5.40;;;1.20;;
12155;SDS011;6141;49.092;8.516;2022-09-09T08:04:46;3.33;;;1.20;;
12155;SDS011;6141;49.092;8.516;2022-09-09T08:07:29;6.53;;;1.10;;
12155;SDS011;6141;49.092;8.516;2022-09-09T08:10:22;4.43;;;1.40;;
12155;SDS011;6141;49.092;8.516;2022-09-09T08:13:18;3.43;;;1.40;;
12155;SDS011;6141;49.092;8.516;2022-09-09T08:16:26;4.70;;;1.30;;
12155;SDS011;6141;49.092;8.516;2022-09-09T08:22:28;5.03;;;1.30;;
12155;SDS011;6141;49.092;8.516;2022-09-09T08:25:26;3.37;;;1.10;;
12155;SDS011;6141;49.092;8.516;2022-09-09T08:28:30;4.47;;;1.20;;
12155;SDS011;6141;49.092;8.516;2022-09-09T08:31:41;2.33;;;1.30;;
12155;SDS011;6141;49.092;8.516;2022-09-09T08:35:05;4.07;;;1.33;;
12155;SDS011;6141;49.092;8.516;2022-09-09T08:38:13;5.10;;;1.53;;
12155;SDS011;6141;49.092;8.516;2022-09-09T08:40:57;3.73;;;1.30;;
12155;SDS011;6141;49.092;8.516;2022-09-09T08:44:37;3.10;;;1.30;;
12155;SDS011;6141;49.092;8.516;2022-09-09T08:48:29;6.40;;;1.50;;
12155;SDS011;6141;49.092;8.516;2022-09-09T08:51:33;5.50;;;1.40;;
12155;SDS011;6141;49.092;8.516;2022-09-09T09:01:06;3.33;;;1.30;;
12155;SDS011;6141;49.092;8.516;2022-09-09T09:04:54;3.23;;;1.43;;
12155;SDS011;6141;49.092;8.516;2022-09-09T09:08:15;4.20;;;1.23;;
12155;SDS011;6141;49.092;8.516;2022-09-09T09:15:37;4.33;;;1.57;;
12155;SDS011;6141;49.092;8.516;2022-09-09T09:18:36;7.30;;;1.57;;
12155;SDS011;6141;49.092;8.516;2022-09-09T09:21:45;5.77;;;1.50;;
12155;SDS011;6141;49.092;8.516;2022-09-09T09:32:58;4.37;;;1.40;;
12155;SDS011;6141;49.092;8.516;2022-09-09T09:35:57;5.37;;;1.30;;
12155;SDS011;6141;49.092;8.516;2022-09-09T09:39:36;4.53;;;1.70;;
12155;SDS011;6141;49.092;8.516;2022-09-09T09:42:51;5.70;;;1.57;;
12155;SDS011;6141;49.092;8.516;2022-09-09T09:50:28;2.80;;;1.13;;
12155;SDS011;6141;49.092;8.516;2022-09-09T09:53:33;3.80;;;1.20;;
12155;SDS011;6141;49.092;8.516;2022-09-09T09:56:44;2.57;;;1.40;;
12155;SDS011;6141;49.092;8.516;2022-09-09T10:00:02;3.57;;;1.00;;
12155;SDS011;6141;49.092;8.516;2022-09-09T10:03:38;3.13;;;1.30;;
12155;SDS011;6141;49.092;8.516;2022-09-09T10:06:42;2.50;;;1.00;;
12155;SDS011;6141;49.092;8.516;2022-09-09T10:09:24;2.30;;;1.10;;
12155;SDS011;6141;49.092;8.516;2022-09-09T10:12:23;4.13;;;1.30;;
12155;SDS011;6141;49.092;8.516;2022-09-09T10:15:28;2.97;;;0.90;;
12155;SDS011;6141;49.092;8.516;2022-09-09T10:18:18;3.37;;;1.13;;
12155;SDS011;6141;49.092;8.516;2022-09-09T10:21:08;7.03;;;1.10;;
12155;SDS011;6141;49.092;8.516;2022-09-09T10:28:04;3.67;;;1.10;;
12155;SDS011;6141;49.092;8.516;2022-09-09T10:31:34;4.73;;;1.40;;
12155;SDS011;6141;49.092;8.516;2022-09-09T10:35:08;3.30;;;1.30;;
12155;SDS011;6141;49.092;8.516;2022-09-09T10:38:52;5.10;;;1.43;;
12155;SDS011;6141;49.092;8.516;2022-09-09T10:42:08;4.33;;;1.67;;
12155;SDS011;6141;49.092;8.516;2022-09-09T10:45:24;4.23;;;1.47;;
12155;SDS011;6141;49.092;8.516;2022-09-09T10:48:44;5.17;;;1.63;;
12155;SDS011;6141;49.092;8.516;2022-09-09T10:58:46;6.13;;;1.50;;
12155;SDS011;6141;49.092;8.516;2022-09-09T11:04:51;3.13;;;1.27;;
12155;SDS011;6141;49.092;8.516;2022-09-09T11:07:37;6.67;;;1.50;;
12155;SDS011;6141;49.092;8.516;2022-09-09T11:10:38;5.37;;;1.10;;
12155;SDS011;6141;49.092;8.516;2022-09-09T11:13:32;4.20;;;1.20;;
12155;SDS011;6141;49.092;8.516;2022-09-09T11:16:53;3.07;;;1.33;;
12155;SDS011;6141;49.092;8.516;2022-09-09T11:19:44;3.07;;;1.03;;
12155;SDS011;6141;49.092;8.516;2022-09-09T11:22:44;3.43;;;1.20;;
12155;SDS011;6141;49.092;8.516;2022-09-09T11:26:17;4.53;;;1.40;;
12155;SDS011;6141;49.092;8.516;2022-09-09T11:29:23;6.63;;;1.30;;
12155;SDS011;6141;49.092;8.516;2022-09-09T11:36:42;3.70;;;1.10;;
12155;SDS011;6141;49.092;8.516;2022-09-09T11:40:02;5.63;;;1.27;;
12155;SDS011;6141;49.092;8.516;2022-09-09T11:43:24;2.50;;;1.20;;
12155;SDS011;6141;49.092;8.516;2022-09-09T11:46:49;4.27;;;1.40;;
12155;SDS011;6141;49.092;8.516;2022-09-09T11:49:51;3.17;;;1.07;;
12155;SDS011;6141;49.092;8.516;2022-09-09T11:52:35;3.60;;;1.30;;
12155;SDS011;6141;49.092;8.516;2022-09-09T11:55:26;5.10;;;1.50;;
12155;SDS011;6141;49.092;8.516;2022-09-09T11:58:36;4.90;;;1.40;;
12155;SDS011;6141;49.092;8.516;2022-09-09T12:01:35;6.03;;;1.57;;
12155;SDS011;6141;49.092;8.516;2022-09-09T12:04:54;4.50;;;1.40;;
12155;SDS011;6141;49.092;8.516;2022-09-09T12:08:33;5.53;;;1.27;;
12155;SDS011;6141;49.092;8.516;2022-09-09T12:11:50;4.07;;;1.20;;
12155;SDS011;6141;49.092;8.516;2022-09-09T12:23:24;3.93;;;1.10;;
12155;SDS011;6141;49.092;8.516;2022-09-09T12:26:38;5.00;;;1.40;;
12155;SDS011;6141;49.092;8.516;2022-09-09T12:30:10;3.90;;;1.27;;
12155;SDS011;6141;49.092;8.516;2022-09-09T12:33:08;3.83;;;1.23;;
12155;SDS011;6141;49.092;8.516;2022-09-09T12:36:16;4.93;;;1.30;;
12155;SDS011;6141;49.092;8.516;2022-09-09T12:39:40;2.97;;;1.37;;
12155;SDS011;6141;49.092;8.516;2022-09-09T12:42:39;4.57;;;1.23;;
12155;SDS011;6141;49.092;8.516;2022-09-09T12:45:33;3.97;;;1.40;;
12155;SDS011;6141;49.092;8.516;2022-09-09T12:48:20;2.37;;;1.10;;
12155;SDS011;6141;49.092;8.516;2022-09-09T12:51:33;4.00;;;1.10;;
12155;SDS011;6141;49.092;8.516;2022-09-09T12:54:26;3.90;;;1.30;;
12155;SDS011;6141;49.092;8.516;2022-09-09T12:57:51;6.17;;;1.30;;
12155;SDS011;6141;49.092;8.516;2022-09-09T13:00:50;4.87;;;1.33;;
12155;SDS011;6141;49.092;8.516;2022-09-09T13:03:41;4.00;;;1.33;;
12155;SDS011;6141;49.092;8.516;2022-09-09T13:10:12;5.20;;;1.60;;
12155;SDS011;6141;49.092;8.516;2022-09-09T13:13:34;5.20;;;1.23;;
12155;SDS011;6141;49.092;8.516;2022-09-09T13:16:39;5.03;;;1.77;;
12155;SDS011;6141;49.092;8.516;2022-09-09T13:19:43;10.60;;;2.87;;
12155;SDS011;6141;49.092;8.516;2022-09-09T13:22:28;10.47;;;2.77;;
12155;SDS011;6141;49.092;8.516;2022-09-09T13:25:33;15.67;;;3.23;;
12155;SDS011;6141;49.092;8.516;2022-09-09T13:28:48;9.90;;;2.83;;
12155;SDS011;6141;49.092;8.516;2022-09-09T13:31:51;9.77;;;2.60;;
12155;SDS011;6141;49.092;8.516;2022-09-09T13:34:57;6.60;;;1.83;;
12155;SDS011;6141;49.092;8.516;2022-09-09T13:38:18;8.80;;;1.60;;
12155;SDS011;6141;49.092;8.516;2022-09-09T13:41:30;7.43;;;2.10;;
12155;SDS011;6141;49.092;8.516;2022-09-09T13:47:35;4.53;;;1.50;;
12155;SDS011;6141;49.092;8.516;2022-09-09T13:50:52;3.17;;;1.07;;
12155;SDS011;6141;49.092;8.516;2022-09-09T13:54:02;5.10;;;1.17;;
12155;SDS011;6141;49.092;8.516;2022-09-09T13:56:55;2.90;;;1.07;;
12155;SDS011;6141;49.092;8.516;2022-09-09T13:59:58;4.90;;;1.30;;
12155;SDS011;6141;49.092;8.516;2022-09-09T14:03:14;3.63;;;1.40;;
12155;SDS011;6141;49.092;8.516;2022-09-09T14:06:38;3.43;;;1.10;;
12155;SDS011;6141;49.092;8.516;2022-09-09T14:09:37;3.13;;;1.20;;
12155;SDS011;6141;49.092;8.516;2022-09-09T14:12:33;3.67;;;1.20;;
12155;SDS011;6141;49.092;8.516;2022-09-09T14:16:12;3.90;;;1.30;;
12155;SDS011;6141;49.092;8.516;2022-09-09T14:19:21;2.20;;;1.10;;
12155;SDS011;6141;49.092;8.516;2022-09-09T14:22:30;6.17;;;1.50;;
12155;SDS011;6141;49.092;8.516;2022-09-09T14:25:45;3.80;;;1.23;;
12155;SDS011;6141;49.092;8.516;2022-09-09T14:31:51;4.70;;;1.40;;
12155;SDS011;6141;49.092;8.516;2022-09-09T14:34:47;4.10;;;0.77;;
12155;SDS011;6141;49.092;8.516;2022-09-09T14:38:04;1.40;;;0.60;;
12155;SDS011;6141;49.092;8.516;2022-09-09T14:41:24;2.73;;;0.90;;
12155;SDS011;6141;49.092;8.516;2022-09-09T14:44:22;2.80;;;1.10;;
12155;SDS011;6141;49.092;8.516;2022-09-09T14:47:19;1.73;;;0.93;;
12155;SDS011;6141;49.092;8.516;2022-09-09T14:50:45;7.70;;;1.37;;
12155;SDS011;6141;49.092;8.516;2022-09-09T14:53:21;3.77;;;1.30;;
12155;SDS011;6141;49.092;8.516;2022-09-09T14:56:12;8.03;;;1.40;;
12155;SDS011;6141;49.092;8.516;2022-09-09T15:02:32;4.00;;;1.27;;
12155;SDS011;6141;49.092;8.516;2022-09-09T15:05:09;15.30;;;1.37;;
12155;SDS011;6141;49.092;8.516;2022-09-09T15:08:01;8.27;;;2.17;;
12155;SDS011;6141;49.092;8.516;2022-09-09T15:10:46;6.60;;;1.90;;
12155;SDS011;6141;49.092;8.516;2022-09-09T15:14:02;4.03;;;1.47;;
12155;SDS011;6141;49.092;8.516;2022-09-09T15:20:07;7.60;;;2.13;;
12155;SDS011;6141;49.092;8.516;2022-09-09T15:41:49;3.40;;;1.30;;
12155;SDS011;6141;49.092;8.516;2022-09-09T15:45:43;3.97;;;1.50;;
12155;SDS011;6141;49.092;8.516;2022-09-09T15:53:18;4.93;;;1.47;;
12155;SDS011;6141;49.092;8.516;2022-09-09T15:56:36;3.67;;;1.30;;
12155;SDS011;6141;49.092;8.516;2022-09-09T15:59:18;3.97;;;1.20;;
12155;SDS011;6141;49.092;8.516;2022-09-09T16:02:29;7.03;;;1.43;;
12155;SDS011;6141;49.092;8.516;2022-09-09T16:05:20;4.43;;;1.13;;
12155;SDS011;6141;49.092;8.516;2022-09-09T16:07:49;4.90;;;1.30;;
12155;SDS011;6141;49.092;8.516;2022-09-09T16:10:24;3.23;;;1.17;;
12155;SDS011;6141;49.092;8.516;2022-09-09T16:12:53;3.17;;;1.23;;
12155;SDS011;6141;49.092;8.516;2022-09-09T16:15:38;6.27;;;1.40;;
12155;SDS011;6141;49.092;8.516;2022-09-09T16:18:06;3.67;;;1.13;;
12155;SDS011;6141;49.092;8.516;2022-09-09T16:20:40;6.40;;;1.30;;
12155;SDS011;6141;49.092;8.516;2022-09-09T16:23:15;5.53;;;1.60;;
12155;SDS011;6141;49.092;8.516;2022-09-09T16:25:54;3.10;;;1.10;;
12155;SDS011;6141;49.092;8.516;2022-09-09T16:28:39;3.13;;;1.20;;
12155;SDS011;6141;49.092;8.516;2022-09-09T16:31:16;4.60;;;1.20;;
12155;SDS011;6141;49.092;8.516;2022-09-09T16:33:46;3.47;;;1.20;;
12155;SDS011;6141;49.092;8.516;2022-09-09T16:36:17;6.73;;;1.23;;
12155;SDS011;6141;49.092;8.516;2022-09-09T16:38:51;3.43;;;1.20;;
12155;SDS011;6141;49.092;8.516;2022-09-09T16:41:38;2.20;;;1.20;;
12155;SDS011;6141;49.092;8.516;2022-09-09T16:44:15;5.07;;;0.97;;
12155;SDS011;6141;49.092;8.516;2022-09-09T16:46:48;4.03;;;1.37;;
12155;SDS011;6141;49.092;8.516;2022-09-09T16:49:26;3.43;;;1.20;;
12155;SDS011;6141;49.092;8.516;2022-09-09T16:52:04;3.03;;;1.20;;
12155;SDS011;6141;49.092;8.516;2022-09-09T16:54:40;4.63;;;1.33;;
12155;SDS011;6141;49.092;8.516;2022-09-09T16:57:13;2.47;;;1.00;;
12155;SDS011;6141;49.092;8.516;2022-09-09T16:59:44;4.63;;;1.40;;
12155;SDS011;6141;49.092;8.516;2022-09-09T17:02:16;3.87;;;1.30;;
12155;SDS011;6141;49.092;8.516;2022-09-09T17:04:49;3.63;;;1.30;;
12155;SDS011;6141;49.092;8.516;2022-09-09T17:07:30;1.83;;;0.97;;
12155;SDS011;6141;49.092;8.516;2022-09-09T17:10:12;4.40;;;1.30;;
12155;SDS011;6141;49.092;8.516;2022-09-09T17:12:47;2.83;;;0.87;;
12155;SDS011;6141;49.092;8.516;2022-09-09T17:15:16;2.97;;;1.10;;
12155;SDS011;6141;49.092;8.516;2022-09-09T17:17:47;2.40;;;0.90;;
12155;SDS011;6141;49.092;8.516;2022-09-09T17:20:22;4.30;;;1.23;;
12155;SDS011;6141;49.092;8.516;2022-09-09T17:22:50;3.63;;;1.07;;
12155;SDS011;6141;49.092;8.516;2022-09-09T17:25:19;2.37;;;0.80;;
12155;SDS011;6141;49.092;8.516;2022-09-09T17:27:49;2.13;;;0.80;;
12155;SDS011;6141;49.092;8.516;2022-09-09T17:33:49;4.00;;;1.30;;
12155;SDS011;6141;49.092;8.516;2022-09-09T17:36:33;2.50;;;0.90;;
12155;SDS011;6141;49.092;8.516;2022-09-09T17:39:21;3.13;;;0.90;;
12155;SDS011;6141;49.092;8.516;2022-09-09T17:42:20;2.40;;;1.20;;
12155;SDS011;6141;49.092;8.516;2022-09-09T17:44:51;3.97;;;1.37;;
12155;SDS011;6141;49.092;8.516;2022-09-09T17:50:47;4.07;;;1.50;;
12155;SDS011;6141;49.092;8.516;2022-09-09T18:01:15;3.20;;;1.50;;
12155;SDS011;6141;49.092;8.516;2022-09-09T18:03:52;4.17;;;1.50;;
12155;SDS011;6141;49.092;8.516;2022-09-09T18:06:47;4.43;;;1.53;;
12155;SDS011;6141;49.092;8.516;2022-09-09T18:09:21;3.43;;;1.40;;
12155;SDS011;6141;49.092;8.516;2022-09-09T18:12:00;5.17;;;1.60;;
12155;SDS011;6141;49.092;8.516;2022-09-09T18:14:32;2.97;;;1.20;;
12155;SDS011;6141;49.092;8.516;2022-09-09T18:17:02;4.60;;;1.40;;
12155;SDS011;6141;49.092;8.516;2022-09-09T18:19:31;6.90;;;1.60;;
12155;SDS011;6141;49.092;8.516;2022-09-09T18:22:19;5.63;;;1.50;;
12155;SDS011;6141;49.092;8.516;2022-09-09T18:25:02;4.33;;;1.40;;
12155;SDS011;6141;49.092;8.516;2022-09-09T18:27:31;3.67;;;1.20;;
12155;SDS011;6141;49.092;8.516;2022-09-09T18:30:07;3.57;;;1.43;;
12155;SDS011;6141;49.092;8.516;2022-09-09T18:32:38;5.90;;;1.40;;
12155;SDS011;6141;49.092;8.516;2022-09-09T18:35:13;4.30;;;1.30;;
12155;SDS011;6141;49.092;8.516;2022-09-09T18:37:46;6.13;;;1.20;;
12155;SDS011;6141;49.092;8.516;2022-09-09T18:40:22;4.57;;;1.30;;
12155;SDS011;6141;49.092;8.516;2022-09-09T18:42:54;4.07;;;1.10;;
12155;SDS011;6141;49.092;8.516;2022-09-09T18:46:04;4.60;;;1.30;;
12155;SDS011;6141;49.092;8.516;2022-09-09T18:52:19;5.40;;;1.30;;
12155;SDS011;6141;49.092;8.516;2022-09-09T18:58:22;2.57;;;1.17;;
12155;SDS011;6141;49.092;8.516;2022-09-09T19:02:15;3.87;;;1.37;;
12155;SDS011;6141;49.092;8.516;2022-09-09T19:04:19;3.83;;;1.30;;
12155;SDS011;6141;49.092;8.516;2022-09-09T19:07:11;3.60;;;1.30;;
12155;SDS011;6141;49.092;8.516;2022-09-09T19:10:04;3.13;;;1.50;;
12155;SDS011;6141;49.092;8.516;2022-09-09T19:22:23;5.13;;;1.47;;
12155;SDS011;6141;49.092;8.516;2022-09-09T19:43:57;4.23;;;1.50;;
12155;SDS011;6141;49.092;8.516;2022-09-09T19:47:19;2.60;;;1.20;;
12155;SDS011;6141;49.092;8.516;2022-09-09T19:50:30;3.87;;;1.40;;
12155;SDS011;6141;49.092;8.516;2022-09-09T19:54:03;2.43;;;1.10;;
12155;SDS011;6141;49.092;8.516;2022-09-09T20:05:21;4.17;;;1.40;;
12155;SDS011;6141;49.092;8.516;2022-09-09T20:09:13;5.80;;;1.83;;
12155;SDS011;6141;49.092;8.516;2022-09-09T20:12:50;5.13;;;1.60;;
12155;SDS011;6141;49.092;8.516;2022-09-09T20:16:08;4.80;;;1.87;;
12155;SDS011;6141;49.092;8.516;2022-09-09T20:22:52;8.97;;;1.80;;
12155;SDS011;6141;49.092;8.516;2022-09-09T20:26:21;4.77;;;1.73;;
12155;SDS011;6141;49.092;8.516;2022-09-09T20:29:33;8.60;;;3.07;;
12155;SDS011;6141;49.092;8.516;2022-09-09T20:32:45;6.20;;;1.80;;
12155;SDS011;6141;49.092;8.516;2022-09-09T20:40:09;4.37;;;1.53;;
12155;SDS011;6141;49.092;8.516;2022-09-09T20:43:15;4.20;;;1.40;;
12155;SDS011;6141;49.092;8.516;2022-09-09T20:50:00;5.30;;;1.40;;
12155;SDS011;6141;49.092;8.516;2022-09-09T20:53:22;3.47;;;1.37;;
12155;SDS011;6141;49.092;8.516;2022-09-09T21:00:25;5.80;;;1.40;;
12155;SDS011;6141;49.092;8.516;2022-09-09T21:04:20;4.83;;;1.33;;
12155;SDS011;6141;49.092;8.516;2022-09-09T21:11:53;1.70;;;1.13;;
12155;SDS011;6141;49.092;8.516;2022-09-09T21:15:16;3.03;;;1.30;;
12155;SDS011;6141;49.092;8.516;2022-09-09T21:18:50;3.13;;;1.30;;
12155;SDS011;6141;49.092;8.516;2022-09-09T21:21:57;3.90;;;1.57;;
12155;SDS011;6141;49.092;8.516;2022-09-09T21:25:03;5.33;;;1.77;;
12155;SDS011;6141;49.092;8.516;2022-09-09T21:27:55;3.20;;;1.40;;
12155;SDS011;6141;49.092;8.516;2022-09-09T21:31:31;5.90;;;1.40;;
12155;SDS011;6141;49.092;8.516;2022-09-09T21:38:45;4.07;;;2.07;;
12155;SDS011;6141;49.092;8.516;2022-09-09T21:42:02;6.53;;;2.07;;
12155;SDS011;6141;49.092;8.516;2022-09-09T21:45:22;6.00;;;1.50;;
12155;SDS011;6141;49.092;8.516;2022-09-09T21:48:21;5.97;;;1.67;;
12155;SDS011;6141;49.092;8.516;2022-09-09T21:51:45;4.00;;;1.50;;
12155;SDS011;6141;49.092;8.516;2022-09-09T22:01:25;6.07;;;1.60;;
12155;SDS011;6141;49.092;8.516;2022-09-09T22:04:26;6.23;;;1.70;;
12155;SDS011;6141;49.092;8.516;2022-09-09T22:07:31;5.67;;;1.67;;